Time;durP1;ratioP1;P1;durP2;ratioP2;P2;SDS_P1;SDS_P2;PMS_P1;PMS_P2;Temp;Humidity;BMP_temperature;BMP_pressure;BME280_temperature;BME280_humidity;BME280_pressure;Samples;Min_cycle;Max_cycle;Signal;HPM_P1;HPM_P2
2022/01/22 00:00:58;;;;;;;23.90;11.40;;;;;;;1.49;100.00;100293.84;5043157;28;20195;-57
2022/01/22 00:03:25;;;;;;;15.57;8.37;;;;;;;1.50;100.00;100297.25;5059935;28;20191;-57
2022/01/22 00:05:52;;;;;;;10.33;5.50;;;;;;;1.60;99.91;100301.19;5043615;28;20214;-57
2022/01/22 00:08:20;;;;;;;10.33;5.47;;;;;;;1.53;98.48;100300.56;5061322;28;20183;-57
2022/01/22 00:10:49;;;;;;;25.67;11.23;;;;;;;1.54;99.10;100312.53;5059609;28;20194;-57
2022/01/22 00:16:00;;;;;;;13.10;5.73;;;;;;;1.55;100.00;100301.34;5060471;28;20191;-58
2022/01/22 00:18:27;;;;;;;12.33;6.07;;;;;;;1.54;99.73;100301.41;5061586;28;20191;-57
2022/01/22 00:20:54;;;;;;;25.40;11.50;;;;;;;1.58;100.00;100295.28;5059394;28;20190;-57
2022/01/22 00:23:26;;;;;;;17.90;7.33;;;;;;;1.61;99.10;100295.13;5042477;28;20692;-57
2022/01/22 00:25:53;;;;;;;13.67;5.57;;;;;;;1.62;99.00;100295.09;5059276;28;20219;-57
2022/01/22 00:28:19;;;;;;;66.33;26.27;;;;;;;1.58;99.55;100288.38;5062922;22;20214;-57
2022/01/22 00:30:46;;;;;;;12.83;5.80;;;;;;;1.59;99.84;100291.81;5052284;28;20209;-58
2022/01/22 00:33:15;;;;;;;10.93;5.17;;;;;;;1.61;98.95;100287.41;5058280;28;20185;-58
2022/01/22 00:35:42;;;;;;;25.92;13.23;;;;;;;1.63;98.94;100290.78;5039843;28;20976;-58
2022/01/22 00:38:09;;;;;;;26.37;10.70;;;;;;;1.62;99.20;100291.66;5042108;28;20220;-57
2022/01/22 00:40:37;;;;;;;15.53;7.17;;;;;;;1.62;98.87;100286.53;5042595;28;20191;-58
2022/01/22 00:43:04;;;;;;;27.00;11.67;;;;;;;1.65;98.84;100289.00;5043426;28;20192;-58
2022/01/22 00:45:31;;;;;;;14.17;5.13;;;;;;;1.69;97.76;100282.84;5040661;28;20230;-58
2022/01/22 00:47:57;;;;;;;19.67;7.47;;;;;;;1.66;96.83;100293.25;5060558;28;20209;-57
2022/01/22 00:50:26;;;;;;;20.23;7.20;;;;;;;1.67;98.12;100288.97;5062840;28;20218;-58
2022/01/22 00:52:54;;;;;;;14.10;6.40;;;;;;;1.69;98.37;100282.03;5040409;28;20195;-58
2022/01/22 00:55:21;;;;;;;42.47;18.27;;;;;;;1.65;98.88;100281.28;5036279;28;20198;-58
2022/01/22 00:57:49;;;;;;;13.73;6.73;;;;;;;1.67;98.98;100283.81;5055494;28;20223;-58
2022/01/22 01:00:18;;;;;;;20.97;9.03;;;;;;;1.70;98.63;100294.81;5054374;28;20213;-57
2022/01/22 01:02:46;;;;;;;12.03;5.93;;;;;;;1.65;97.05;100285.59;5041005;28;20190;-58
2022/01/22 01:05:14;;;;;;;11.27;5.27;;;;;;;1.68;97.12;100288.06;5042472;28;20277;-57
2022/01/22 01:07:41;;;;;;;12.20;5.47;;;;;;;1.67;97.85;100288.97;5060018;28;20280;-58
2022/01/22 01:10:12;;;;;;;10.10;5.60;;;;;;;1.68;97.92;100276.00;5058763;28;20178;-56
2022/01/22 01:12:40;;;;;;;14.93;6.03;;;;;;;1.67;97.95;100283.81;5039940;28;20285;-58
2022/01/22 01:15:22;;;;;;;16.63;5.97;;;;;;;1.72;95.67;100289.63;5040422;28;20213;-57
2022/01/22 01:23:24;;;;;;;9.70;5.07;;;;;;;1.68;96.07;100290.63;5042852;28;20225;-59
2022/01/22 01:34:29;;;;;;;18.08;7.63;;;;;;;1.63;97.69;100288.19;5034365;28;20434;-57
2022/01/22 01:36:56;;;;;;;19.40;6.77;;;;;;;1.64;97.74;100291.63;5040254;28;20194;-58
2022/01/22 01:39:28;;;;;;;12.23;6.40;;;;;;;1.68;97.36;100293.22;5037908;28;20727;-58
2022/01/22 01:42:01;;;;;;;10.87;5.67;;;;;;;1.66;97.16;100282.94;5048919;28;20198;-58
2022/01/22 01:44:29;;;;;;;17.77;7.13;;;;;;;1.67;96.90;100289.78;5031868;28;20195;-57
2022/01/22 01:47:14;;;;;;;13.30;6.47;;;;;;;1.66;97.57;100295.00;5033218;28;20690;-57
2022/01/22 01:49:42;;;;;;;14.20;6.73;;;;;;;1.67;97.98;100299.25;5053328;28;20191;-58
2022/01/22 01:52:31;;;;;;;15.50;7.00;;;;;;;1.67;97.16;100291.53;5040524;28;20202;-57
2022/01/22 01:55:05;;;;;;;14.60;6.37;;;;;;;1.70;97.56;100296.56;5038643;28;20244;-56
2022/01/22 01:57:38;;;;;;;13.73;6.50;;;;;;;1.71;97.75;100299.06;5039057;28;20217;-56
2022/01/22 02:00:14;;;;;;;16.13;7.20;;;;;;;1.70;97.90;100299.16;5040423;28;20336;-57
2022/01/22 02:02:50;;;;;;;18.43;7.73;;;;;;;1.68;97.70;100294.03;5040736;28;20190;-57
2022/01/22 02:05:23;;;;;;;21.52;9.18;;;;;;;1.69;97.10;100289.75;5040001;28;20482;-56
2022/01/22 02:07:55;;;;;;;12.57;7.37;;;;;;;1.70;96.94;100288.84;5038960;28;20211;-56
2022/01/22 02:10:28;;;;;;;15.30;6.63;;;;;;;1.69;96.69;100288.00;5040267;28;20195;-56
2022/01/22 02:24:17;;;;;;;14.93;7.53;;;;;;;1.74;96.89;100283.53;5038748;28;20194;-58
2022/01/22 02:26:48;;;;;;;18.30;10.03;;;;;;;1.75;96.83;100281.81;5040279;28;20767;-56
2022/01/22 02:29:19;;;;;;;22.67;8.00;;;;;;;1.77;96.82;100280.03;5039996;28;20218;-58
2022/01/22 02:32:46;;;;;;;23.17;8.40;;;;;;;1.80;96.64;100284.22;5041964;28;20186;-57
2022/01/22 02:35:19;;;;;;;22.60;8.93;;;;;;;1.81;97.98;100279.03;5041827;28;20232;-57
2022/01/22 02:37:54;;;;;;;18.00;7.83;;;;;;;1.76;96.64;100271.44;5039575;28;20573;-57
2022/01/22 02:40:26;;;;;;;16.77;8.33;;;;;;;1.79;96.98;100275.66;5036051;28;20198;-58
2022/01/22 02:42:53;;;;;;;19.00;7.70;;;;;;;1.79;96.90;100269.66;5037061;28;20274;-57
2022/01/22 02:45:23;;;;;;;18.40;7.93;;;;;;;1.77;97.02;100273.13;5044808;28;20290;-56
2022/01/22 02:47:50;;;;;;;15.80;6.57;;;;;;;1.81;96.83;100271.28;5043875;28;20686;-56
2022/01/22 02:50:19;;;;;;;18.77;7.03;;;;;;;1.81;96.63;100266.16;5042766;28;20698;-56
2022/01/22 02:52:47;;;;;;;14.00;7.30;;;;;;;1.79;96.61;100265.34;5039861;28;20218;-57
2022/01/22 02:55:15;;;;;;;12.70;6.93;;;;;;;1.82;96.40;100260.09;5038580;28;20191;-57
2022/01/22 02:57:45;;;;;;;18.17;6.63;;;;;;;1.81;95.98;100258.41;5056373;28;20527;-56
2022/01/22 03:00:22;;;;;;;14.07;6.57;;;;;;;1.82;95.59;100264.41;5038823;28;20179;-56
2022/01/22 03:02:50;;;;;;;14.20;6.60;;;;;;;1.76;95.72;100255.16;5043752;28;20530;-56
2022/01/22 03:05:20;;;;;;;11.80;6.00;;;;;;;1.79;95.66;100261.94;5044634;28;20288;-56
2022/01/22 03:07:52;;;;;;;16.37;6.83;;;;;;;1.80;95.04;100261.03;5045251;28;20211;-56
2022/01/22 03:10:23;;;;;;;16.63;6.83;;;;;;;1.82;94.77;100269.53;5044184;28;20245;-57
2022/01/22 03:13:07;;;;;;;14.93;6.07;;;;;;;1.78;95.23;100271.41;5043505;28;20183;-57
2022/01/22 03:15:52;;;;;;;9.00;5.43;;;;;;;1.80;94.80;100276.47;5040674;28;20245;-56
2022/01/22 03:18:22;;;;;;;13.20;6.30;;;;;;;1.80;95.08;100272.19;5037836;28;20223;-57
2022/01/22 03:21:06;;;;;;;12.80;6.20;;;;;;;1.81;94.79;100273.88;5038907;28;20274;-56
2022/01/22 03:29:08;;;;;;;16.23;7.07;;;;;;;1.80;93.90;100267.03;5043015;28;20225;-57
2022/01/22 03:31:36;;;;;;;18.37;7.60;;;;;;;1.81;94.67;100271.28;5058496;28;20179;-56
2022/01/22 03:34:04;;;;;;;18.80;7.53;;;;;;;1.82;94.59;100270.41;5042268;28;20183;-55
2022/01/22 03:36:33;;;;;;;19.67;7.97;;;;;;;1.84;93.97;100272.91;5038913;28;20187;-54
2022/01/22 03:39:07;;;;;;;20.10;8.27;;;;;;;1.80;94.59;100272.19;5034319;28;20270;-56
2022/01/22 03:41:35;;;;;;;20.53;8.20;;;;;;;1.82;94.18;100274.69;5026833;28;20566;-56
2022/01/22 03:44:04;;;;;;;18.47;8.13;;;;;;;1.79;93.99;100274.81;5055845;28;20182;-55
2022/01/22 03:46:32;;;;;;;18.30;8.10;;;;;;;1.81;93.84;100270.44;5044409;28;20199;-54
2022/01/22 03:49:00;;;;;;;21.67;7.87;;;;;;;1.77;94.13;100269.72;5037734;28;20214;-57
2022/01/22 03:51:27;;;;;;;19.70;8.80;;;;;;;1.75;92.33;100269.75;5032757;28;20193;-57
2022/01/22 03:53:54;;;;;;;24.27;8.60;;;;;;;1.79;94.16;100267.06;5024244;28;20203;-57
2022/01/22 03:56:24;;;;;;;16.33;7.40;;;;;;;1.78;94.03;100273.97;5031164;28;20198;-56
2022/01/22 03:58:51;;;;;;;22.43;9.63;;;;;;;1.76;93.04;100274.00;5051252;28;20718;-54
2022/01/22 04:04:42;;;;;;;20.83;8.73;;;;;;;1.80;93.47;100264.47;5033228;28;20200;-55
2022/01/22 04:09:57;;;;;;;29.47;10.30;;;;;;;1.77;93.56;100259.44;5033456;28;20441;-57
2022/01/22 04:12:34;;;;;;;19.57;9.50;;;;;;;1.83;93.54;100260.94;5051259;28;20196;-56
2022/01/22 04:15:03;;;;;;;19.90;9.73;;;;;;;1.83;93.84;100268.66;5033788;28;20217;-57
2022/01/22 04:24:49;;;;;;;22.63;10.13;;;;;;;1.85;93.14;100262.56;5033941;28;20278;-56
2022/01/22 04:26:03;;;;;;;21.23;9.90;;;;;;;1.80;94.01;100249.00;5051550;28;20240;-56
2022/01/22 04:28:31;;;;;;;22.73;10.20;;;;;;;1.78;94.49;100253.38;5033928;28;20231;-57
2022/01/22 04:30:58;;;;;;;25.13;10.03;;;;;;;1.83;93.93;100254.06;5033412;28;20190;-55
2022/01/22 04:33:28;;;;;;;22.77;10.77;;;;;;;1.84;94.40;100253.16;5034345;28;20230;-57
2022/01/22 04:35:54;;;;;;;29.50;11.70;;;;;;;1.85;95.21;100254.00;5033532;28;20196;-57
2022/01/22 04:38:21;;;;;;;26.00;11.70;;;;;;;1.85;95.51;100256.56;5032177;28;20306;-57
2022/01/22 04:40:48;;;;;;;26.80;12.57;;;;;;;1.83;95.33;100251.47;5048290;28;20260;-56
2022/01/22 04:43:17;;;;;;;33.23;11.57;;;;;;;1.85;95.77;100254.84;5049676;28;20179;-57
2022/01/22 04:45:53;;;;;;;27.27;12.20;;;;;;;1.90;95.45;100259.81;5032982;28;20385;-57
2022/01/22 04:48:40;;;;;;;24.60;12.30;;;;;;;1.91;95.14;100251.19;5033343;28;20247;-56
2022/01/22 04:56:39;;;;;;;26.73;11.93;;;;;;;1.91;95.13;100257.19;5031586;28;20199;-57
2022/01/22 04:59:05;;;;;;;32.60;12.87;;;;;;;1.87;95.25;100255.63;5032597;28;20218;-56
2022/01/22 05:01:33;;;;;;;32.30;13.83;;;;;;;1.87;94.83;100252.19;5032874;28;20667;-56
2022/01/22 05:04:24;;;;;;;31.37;13.13;;;;;;;1.88;94.43;100261.59;5050922;28;20267;-57
2022/01/22 05:07:14;;;;;;;26.93;13.13;;;;;;;1.87;95.25;100253.06;5042491;28;20219;-56
2022/01/22 05:10:02;;;;;;;27.60;13.07;;;;;;;1.89;94.98;100261.56;5008841;28;20214;-56
2022/01/22 05:12:32;;;;;;;30.67;13.33;;;;;;;1.90;95.60;100263.25;5045988;28;20187;-56
2022/01/22 05:14:59;;;;;;;35.83;13.50;;;;;;;1.89;95.51;100264.13;5031746;28;20866;-57
2022/01/22 05:17:31;;;;;;;34.93;13.00;;;;;;;1.89;95.25;100263.28;5032149;28;20201;-55
2022/01/22 05:20:05;;;;;;;26.93;12.90;;;;;;;1.92;95.88;100270.91;5028891;28;20215;-55
2022/01/22 05:22:53;;;;;;;28.80;13.77;;;;;;;1.91;95.24;100267.50;5049577;28;20693;-55
2022/01/22 05:25:26;;;;;;;32.33;13.83;;;;;;;1.90;95.04;100268.41;5012964;28;20200;-57
2022/01/22 05:28:04;;;;;;;29.90;12.60;;;;;;;1.90;94.99;100273.53;5030859;28;20211;-55
2022/01/22 05:31:05;;;;;;;29.80;12.80;;;;;;;1.92;95.17;100278.63;5013273;28;20199;-55
2022/01/22 05:36:58;;;;;;;30.47;12.97;;;;;;;1.90;95.58;100285.56;5031104;28;20180;-55
2022/01/22 05:39:29;;;;;;;25.00;13.03;;;;;;;1.92;95.40;100289.78;5012950;28;20206;-55
2022/01/22 05:41:57;;;;;;;38.63;13.70;;;;;;;1.92;95.08;100286.34;5030609;28;20810;-55
2022/01/22 05:44:24;;;;;;;30.40;13.90;;;;;;;1.92;95.01;100288.94;5012673;28;20190;-55
2022/01/22 05:46:53;;;;;;;31.27;13.63;;;;;;;1.95;95.04;100285.41;5013019;28;20211;-55
2022/01/22 05:49:23;;;;;;;36.20;15.10;;;;;;;1.95;94.92;100291.41;5023671;28;20234;-55
2022/01/22 05:51:52;;;;;;;28.60;13.50;;;;;;;1.96;94.66;100294.84;5046700;28;20198;-55
2022/01/22 05:54:46;;;;;;;34.97;14.03;;;;;;;1.95;95.17;100295.72;5030447;28;20199;-55
2022/01/22 06:00:00;;;;;;;29.57;13.60;;;;;;;1.98;95.63;100295.63;5029188;28;20278;-55
2022/01/22 06:02:29;;;;;;;35.17;12.67;;;;;;;1.95;94.04;100306.03;5029215;28;20705;-55
2022/01/22 06:05:02;;;;;;;34.13;14.13;;;;;;;1.95;95.02;100306.03;5029034;28;20195;-55
2022/01/22 06:07:30;;;;;;;32.53;12.90;;;;;;;1.94;95.08;100304.34;5029187;28;20868;-55
2022/01/22 06:10:04;;;;;;;27.40;13.40;;;;;;;1.94;94.32;100315.47;5029138;28;20555;-55
2022/01/22 06:12:43;;;;;;;28.67;13.60;;;;;;;1.95;93.87;100316.31;5029225;28;20195;-55
2022/01/22 06:15:12;;;;;;;30.40;14.10;;;;;;;1.97;95.33;100314.53;5028895;28;20282;-55
2022/01/22 06:17:59;;;;;;;30.20;13.30;;;;;;;1.96;94.07;100308.53;5033031;28;20214;-55
2022/01/22 06:20:27;;;;;;;28.23;14.07;;;;;;;1.97;93.95;100306.81;5032803;28;20257;-55
2022/01/22 06:22:54;;;;;;;39.07;12.77;;;;;;;1.99;94.87;100313.56;5033297;28;20618;-55
2022/01/22 06:25:21;;;;;;;32.27;12.83;;;;;;;2.00;94.86;100304.94;5032661;28;20202;-55
2022/01/22 06:27:48;;;;;;;30.87;13.53;;;;;;;1.98;94.63;100303.34;5032646;28;20233;-56
2022/01/22 06:30:15;;;;;;;26.40;12.53;;;;;;;1.96;94.98;100305.13;5032859;28;20203;-56
2022/01/22 06:32:48;;;;;;;32.43;13.87;;;;;;;1.92;94.42;100310.38;5033061;28;20199;-55
2022/01/22 06:35:15;;;;;;;31.63;12.90;;;;;;;1.95;94.69;100314.56;5032547;28;20283;-55
2022/01/22 06:37:44;;;;;;;28.20;13.80;;;;;;;1.95;93.76;100313.75;5032753;28;20215;-55
2022/01/22 06:43:58;;;;;;;29.70;13.03;;;;;;;1.94;94.10;100317.22;5033018;28;20217;-55
2022/01/22 06:46:46;;;;;;;26.53;12.27;;;;;;;1.97;92.87;100330.00;5035743;28;20567;-55
2022/01/22 06:49:39;;;;;;;31.30;12.60;;;;;;;1.97;94.03;100332.56;5053434;28;20194;-56
2022/01/22 06:52:26;;;;;;;27.47;11.07;;;;;;;1.97;93.90;100327.41;5052854;28;20218;-55
2022/01/22 06:55:00;;;;;;;26.67;12.67;;;;;;;1.91;92.53;100331.03;5035356;28;20212;-55
2022/01/22 06:57:27;;;;;;;28.77;12.13;;;;;;;1.95;91.93;100331.78;5034204;28;20196;-55
2022/01/22 06:59:56;;;;;;;24.37;11.93;;;;;;;1.95;92.80;100331.78;5028477;28;20474;-55
2022/01/22 07:02:23;;;;;;;34.17;13.20;;;;;;;1.95;93.18;100329.19;5034554;28;20197;-55
2022/01/22 07:04:54;;;;;;;31.30;15.17;;;;;;;1.97;92.90;100330.81;5034721;28;20486;-55
2022/01/22 07:07:44;;;;;;;28.13;12.60;;;;;;;1.96;93.57;100326.56;5042377;28;20477;-55
2022/01/22 07:10:12;;;;;;;29.97;12.87;;;;;;;1.95;93.14;100330.03;5035169;28;20249;-55
2022/01/22 07:12:40;;;;;;;27.53;13.10;;;;;;;1.98;92.87;100336.81;5035615;28;20187;-55
2022/01/22 07:15:07;;;;;;;30.10;12.67;;;;;;;1.99;92.59;100336.75;5034737;28;20618;-55
2022/01/22 07:17:36;;;;;;;25.30;11.90;;;;;;;1.99;91.99;100341.91;5034927;28;20215;-55
2022/01/22 07:20:14;;;;;;;25.07;11.90;;;;;;;2.01;92.59;100349.59;5035056;28;20245;-55
2022/01/22 07:22:50;;;;;;;34.83;11.77;;;;;;;2.01;92.65;100357.31;5035346;28;20658;-56
2022/01/22 07:25:42;;;;;;;27.63;12.10;;;;;;;2.05;93.61;100359.72;5034754;28;20738;-55
2022/01/22 07:28:22;;;;;;;24.87;11.13;;;;;;;2.05;92.49;100364.88;5029335;28;20306;-56
2022/01/22 07:30:49;;;;;;;29.67;11.50;;;;;;;2.02;91.96;100359.00;5030798;28;20195;-56
2022/01/22 07:33:18;;;;;;;24.13;11.17;;;;;;;2.06;92.57;100361.41;5034832;28;20218;-56
2022/01/22 07:35:45;;;;;;;29.35;14.32;;;;;;;2.04;91.71;100359.78;5033550;28;20962;-56
2022/01/22 07:38:12;;;;;;;27.27;11.50;;;;;;;2.05;92.41;100354.56;5052783;28;20203;-56
2022/01/22 07:40:41;;;;;;;24.93;11.37;;;;;;;2.05;92.42;100359.72;5034663;28;20229;-56
2022/01/22 07:43:17;;;;;;;29.77;13.37;;;;;;;2.06;91.76;100369.13;5034823;28;20302;-56
2022/01/22 07:46:04;;;;;;;22.13;11.33;;;;;;;2.04;91.96;100363.19;5052643;28;20198;-56
2022/01/22 07:48:33;;;;;;;22.53;12.33;;;;;;;2.05;91.37;100369.19;5034350;28;20219;-56
2022/01/22 07:51:14;;;;;;;24.57;11.27;;;;;;;2.05;90.28;100374.34;5051493;28;20524;-56
2022/01/22 07:53:44;;;;;;;21.03;10.50;;;;;;;2.08;90.96;100370.81;5033553;28;20254;-56
2022/01/22 07:56:18;;;;;;;21.23;10.20;;;;;;;2.08;92.07;100365.66;5033708;28;20202;-56
2022/01/22 07:58:45;;;;;;;24.37;11.90;;;;;;;2.08;91.38;100366.53;5033665;28;20617;-56
2022/01/22 08:01:13;;;;;;;23.87;10.53;;;;;;;2.08;92.08;100363.09;5034005;28;20195;-56
2022/01/22 08:04:00;;;;;;;17.80;9.95;;;;;;;2.10;91.41;100363.88;5051849;28;20871;-56
2022/01/22 08:07:04;;;;;;;28.47;11.07;;;;;;;2.12;90.52;100375.78;5051858;28;20191;-56
2022/01/22 08:09:50;;;;;;;22.97;10.17;;;;;;;2.15;91.00;100369.72;5051916;28;20201;-56
2022/01/22 08:12:42;;;;;;;21.17;9.47;;;;;;;2.12;90.24;100370.63;5033909;28;20725;-56
2022/01/22 08:15:13;;;;;;;24.80;11.20;;;;;;;2.11;90.17;100376.72;5029097;28;20191;-56
2022/01/22 08:17:42;;;;;;;30.73;10.53;;;;;;;2.13;90.29;100385.22;5024838;28;20266;-55
2022/01/22 08:20:12;;;;;;;23.30;10.37;;;;;;;2.11;90.98;100378.44;5030498;28;20726;-56
2022/01/22 08:22:51;;;;;;;19.67;9.83;;;;;;;2.15;90.65;100377.44;5051818;28;20179;-56
2022/01/22 08:25:18;;;;;;;28.50;10.23;;;;;;;2.16;89.35;100379.94;5051321;28;20199;-56
2022/01/22 08:30:44;;;;;;;27.90;10.23;;;;;;;2.13;91.07;100382.63;5033197;28;20207;-56
2022/01/22 08:33:32;;;;;;;19.50;10.10;;;;;;;2.15;90.73;100374.88;5033682;28;20337;-56
2022/01/22 08:36:02;;;;;;;22.83;10.37;;;;;;;2.18;89.91;100380.72;5033780;28;20214;-56
2022/01/22 08:38:32;;;;;;;29.20;11.47;;;;;;;2.21;90.11;100380.63;5033441;28;20211;-56
2022/01/22 08:40:59;;;;;;;24.00;9.80;;;;;;;2.27;90.39;100381.31;5032398;28;20195;-56
2022/01/22 08:43:31;;;;;;;22.83;10.60;;;;;;;2.24;90.08;100379.69;5033636;28;20197;-56
2022/01/22 08:45:58;;;;;;;24.00;10.73;;;;;;;2.29;90.48;100380.38;5033463;28;20297;-56
2022/01/22 08:48:25;;;;;;;25.73;10.67;;;;;;;2.28;89.52;100389.00;5033248;28;20215;-56
2022/01/22 08:50:56;;;;;;;21.77;8.83;;;;;;;2.34;89.92;100398.22;5032679;28;20187;-56
2022/01/22 08:53:25;;;;;;;23.27;9.43;;;;;;;2.37;90.09;100400.72;5033071;28;20187;-56
2022/01/22 08:55:54;;;;;;;19.07;9.03;;;;;;;2.29;89.52;100385.53;5031736;28;20198;-56
2022/01/22 08:58:21;;;;;;;27.07;10.53;;;;;;;2.31;90.10;100388.03;5030897;28;20322;-56
2022/01/22 09:00:59;;;;;;;22.20;9.83;;;;;;;2.41;89.38;100398.88;5031803;28;20441;-52
2022/01/22 09:03:32;;;;;;;27.13;9.13;;;;;;;2.42;88.84;100405.72;5031351;28;20289;-54
2022/01/22 09:06:17;;;;;;;20.93;9.27;;;;;;;2.44;88.59;100417.63;5031347;28;20195;-52
2022/01/22 09:08:59;;;;;;;24.90;11.47;;;;;;;2.50;89.45;100414.00;5050157;28;20306;-52
2022/01/22 09:11:44;;;;;;;22.73;11.20;;;;;;;2.52;89.44;100422.53;5032409;28;20562;-53
2022/01/22 09:14:30;;;;;;;20.93;10.40;;;;;;;2.57;88.99;100414.63;5049606;28;20686;-54
2022/01/22 09:16:59;;;;;;;23.10;11.83;;;;;;;2.58;88.15;100418.88;5032179;28;20195;-54
2022/01/22 09:19:34;;;;;;;16.07;10.00;;;;;;;2.54;87.26;100415.59;5050167;28;20760;-53
2022/01/22 09:22:06;;;;;;;19.40;9.37;;;;;;;2.55;86.43;100414.69;5031847;28;20206;-54
2022/01/22 09:24:35;;;;;;;21.83;9.80;;;;;;;2.53;87.34;100418.19;5031790;28;20659;-54
2022/01/22 09:27:04;;;;;;;21.90;10.37;;;;;;;2.48;88.01;100419.22;5031827;28;20278;-54
2022/01/22 09:29:34;;;;;;;21.90;9.00;;;;;;;2.55;88.02;100422.44;5049625;28;20678;-54
2022/01/22 09:32:03;;;;;;;20.83;9.57;;;;;;;2.56;88.49;100405.22;5031698;28;20245;-53
2022/01/22 09:34:51;;;;;;;21.37;10.53;;;;;;;2.60;88.61;100411.94;5031345;28;20833;-54
2022/01/22 09:37:37;;;;;;;19.87;10.30;;;;;;;2.65;88.23;100422.94;5031878;28;20215;-52
2022/01/22 09:40:23;;;;;;;21.43;11.03;;;;;;;2.75;87.57;100413.97;5049496;28;20421;-54
2022/01/22 09:43:12;;;;;;;22.83;9.50;;;;;;;2.78;87.70;100418.16;5049018;28;20613;-52
2022/01/22 09:45:58;;;;;;;22.53;10.37;;;;;;;2.80;88.12;100416.34;5049784;28;20198;-53
2022/01/22 09:48:43;;;;;;;18.77;9.47;;;;;;;2.82;87.81;100414.56;5031769;28;20219;-54
2022/01/22 09:51:34;;;;;;;23.77;9.37;;;;;;;2.93;88.12;100422.75;5030421;28;20392;-53
2022/01/22 09:54:07;;;;;;;18.20;9.73;;;;;;;2.98;88.00;100422.59;5030891;28;20195;-52
2022/01/22 09:57:13;;;;;;;23.73;9.63;;;;;;;3.07;87.64;100418.81;5017597;28;20192;-54
2022/01/22 09:59:46;;;;;;;20.53;9.70;;;;;;;3.11;87.92;100428.09;5029748;28;20207;-54
2022/01/22 10:02:42;;;;;;;23.67;11.17;;;;;;;3.09;88.67;100425.59;5019092;28;20226;-53
2022/01/22 10:05:31;;;;;;;21.10;9.93;;;;;;;3.12;87.34;100421.22;5011379;28;20183;-53
2022/01/22 10:08:25;;;;;;;25.27;10.20;;;;;;;3.10;87.27;100426.44;5029245;28;20840;-54
2022/01/22 10:11:17;;;;;;;21.23;10.10;;;;;;;2.99;86.35;100426.00;5021807;28;20279;-53
2022/01/22 10:14:04;;;;;;;24.57;10.30;;;;;;;3.04;86.26;100437.84;5028891;28;20249;-53
2022/01/22 10:16:33;;;;;;;25.30;10.87;;;;;;;3.04;86.39;100431.81;5029454;28;20200;-53
2022/01/22 10:19:15;;;;;;;23.50;12.47;;;;;;;3.02;86.82;100436.19;5029238;28;20214;-52
2022/01/22 10:21:46;;;;;;;26.97;11.07;;;;;;;3.03;87.39;100432.72;5029062;28;20210;-54
2022/01/22 10:24:29;;;;;;;24.97;12.03;;;;;;;3.08;86.20;100421.34;5028973;28;20693;-54
2022/01/22 10:27:31;;;;;;;18.90;9.90;;;;;;;3.13;85.93;100428.06;5029405;28;20199;-53
2022/01/22 10:30:01;;;;;;;24.00;12.03;;;;;;;3.17;86.40;100421.88;5027863;28;20226;-53
2022/01/22 10:32:40;;;;;;;22.53;10.97;;;;;;;3.20;87.47;100429.47;5029427;28;20664;-52
2022/01/22 10:35:28;;;;;;;27.80;13.50;;;;;;;3.20;88.04;100422.59;5028026;28;20421;-54
2022/01/22 10:38:17;;;;;;;25.67;12.30;;;;;;;3.22;87.00;100425.97;5032510;28;20726;-54
2022/01/22 10:40:45;;;;;;;23.07;11.50;;;;;;;3.21;85.49;100433.75;5046400;28;20191;-54
2022/01/22 10:43:15;;;;;;;21.03;10.17;;;;;;;3.30;85.73;100435.97;5048928;28;20198;-53
2022/01/22 10:45:56;;;;;;;24.67;11.47;;;;;;;3.22;85.96;100435.44;5048821;28;20893;-54
2022/01/22 10:48:24;;;;;;;27.17;11.20;;;;;;;3.21;86.25;100423.41;5049056;28;20216;-54
2022/01/22 10:51:01;;;;;;;31.93;13.20;;;;;;;3.24;87.05;100420.72;5048780;28;20185;-53
2022/01/22 10:53:42;;;;;;;24.60;11.10;;;;;;;3.26;85.88;100426.66;5031387;28;20253;-53
2022/01/22 10:56:10;;;;;;;27.47;10.17;;;;;;;3.42;85.75;100419.19;5048279;28;20199;-53
2022/01/22 10:58:50;;;;;;;22.83;12.20;;;;;;;3.47;86.73;100416.41;5046993;28;20208;-54
2022/01/22 11:01:17;;;;;;;23.73;11.47;;;;;;;3.60;85.63;100419.34;5030666;28;20202;-53
2022/01/22 11:03:44;;;;;;;26.00;12.87;;;;;;;3.70;86.08;100410.34;5049590;28;20651;-53
2022/01/22 11:06:26;;;;;;;28.27;11.53;;;;;;;3.88;85.58;100413.91;5052673;28;20189;-54
2022/01/22 11:08:55;;;;;;;23.33;11.07;;;;;;;3.84;85.66;100410.59;5052330;28;20674;-54
2022/01/22 11:11:24;;;;;;;27.83;13.73;;;;;;;3.85;85.05;100411.44;5052058;28;20188;-53
2022/01/22 11:13:51;;;;;;;22.87;11.30;;;;;;;3.90;86.34;100411.22;5052107;28;20187;-54
2022/01/22 11:16:18;;;;;;;30.40;10.27;;;;;;;3.82;85.75;100408.97;5052548;28;20179;-54
2022/01/22 11:18:48;;;;;;;26.23;12.33;;;;;;;3.89;85.07;100404.38;5046461;28;20218;-54
2022/01/22 11:21:17;;;;;;;21.60;11.30;;;;;;;4.03;85.68;100409.81;5028551;28;20574;-54
2022/01/22 11:23:44;;;;;;;28.73;10.13;;;;;;;4.07;85.23;100406.19;5051631;28;20187;-53
2022/01/22 11:26:15;;;;;;;24.83;11.17;;;;;;;4.12;84.53;100404.25;5051529;28;20191;-52
2022/01/22 11:28:44;;;;;;;21.77;9.97;;;;;;;4.10;83.09;100400.91;5051656;28;20272;-53
2022/01/22 11:31:12;;;;;;;26.93;10.03;;;;;;;3.95;82.90;100397.22;5055163;28;20618;-52
2022/01/22 11:33:41;;;;;;;21.30;9.73;;;;;;;3.99;86.40;100409.13;5042379;28;20191;-54
2022/01/22 11:36:20;;;;;;;17.77;9.33;;;;;;;4.04;84.71;100406.31;5057585;28;20191;-53
2022/01/22 11:38:54;;;;;;;21.47;9.27;;;;;;;3.90;85.79;100409.50;5060409;28;20607;-54
2022/01/22 11:41:24;;;;;;;22.20;9.13;;;;;;;3.98;84.78;100414.34;5042441;28;20240;-53
2022/01/22 11:44:07;;;;;;;25.13;9.73;;;;;;;4.05;82.75;100407.19;5057668;28;20195;-53
2022/01/22 11:46:37;;;;;;;19.80;9.27;;;;;;;4.06;84.91;100414.84;5059120;28;20207;-54
2022/01/22 11:49:10;;;;;;;19.73;9.53;;;;;;;4.11;85.75;100404.34;5060380;28;21404;-54
2022/01/22 11:51:37;;;;;;;38.00;15.40;;;;;;;4.12;85.30;100408.59;5059560;28;20186;-51
2022/01/22 11:54:05;;;;;;;24.43;11.93;;;;;;;4.06;86.51;100408.88;5068287;28;20676;-53
2022/01/22 11:56:42;;;;;;;25.90;12.93;;;;;;;4.16;85.61;100399.81;5054717;28;20195;-53
2022/01/22 11:59:25;;;;;;;24.20;11.10;;;;;;;4.14;85.03;100397.28;5056576;28;20916;-54
2022/01/22 12:02:02;;;;;;;20.37;10.13;;;;;;;4.32;84.96;100404.28;5065137;28;20699;-54
2022/01/22 12:04:46;;;;;;;15.73;9.67;;;;;;;4.36;84.29;100392.91;5071202;28;20840;-52
2022/01/22 12:07:19;;;;;;;30.67;15.53;;;;;;;4.45;83.68;100389.94;5052257;28;20233;-50
2022/01/22 12:10:16;;;;;;;23.17;10.63;;;;;;;4.51;83.83;100388.84;5031695;28;20444;-53
2022/01/22 12:15:51;;;;;;;22.63;12.17;;;;;;;4.29;83.13;100390.59;5051812;28;20191;-51
2022/01/22 12:18:21;;;;;;;28.90;13.87;;;;;;;4.26;83.37;100393.31;5052070;28;20306;-52
2022/01/22 12:23:53;;;;;;;23.70;10.87;;;;;;;4.33;82.35;100395.63;5051712;28;20555;-53
2022/01/22 12:26:47;;;;;;;20.63;10.67;;;;;;;4.23;84.32;100395.22;5033990;28;20859;-50
2022/01/22 12:35:16;;;;;;;24.30;12.17;;;;;;;4.11;85.59;100387.06;5048864;28;20206;-62
2022/01/22 12:37:50;;;;;;;26.73;13.33;;;;;;;4.16;85.04;100389.47;5051807;28;20183;-62
2022/01/22 12:40:32;;;;;;;20.30;10.27;;;;;;;4.13;83.24;100384.44;5051354;28;20203;-62
2022/01/22 12:43:06;;;;;;;19.83;10.70;;;;;;;3.88;85.14;100382.03;5051949;28;20210;-62
2022/01/22 12:45:34;;;;;;;19.67;11.67;;;;;;;3.98;85.92;100383.34;5051418;28;20195;-62
2022/01/22 12:48:03;;;;;;;24.47;11.03;;;;;;;4.09;85.10;100381.13;5051610;28;20271;-61
2022/01/22 12:50:35;;;;;;;28.30;13.97;;;;;;;3.96;85.09;100380.81;5051305;28;20226;-62
2022/01/22 12:53:13;;;;;;;27.90;12.20;;;;;;;4.02;85.83;100395.22;5051808;28;20183;-62
2022/01/22 12:58:38;;;;;;;28.17;12.53;;;;;;;3.92;84.95;100388.75;5032744;28;20562;-62
2022/01/22 13:01:24;;;;;;;22.43;12.33;;;;;;;3.73;84.46;100384.34;5030165;28;20287;-62
2022/01/22 13:03:54;;;;;;;26.87;12.93;;;;;;;3.79;85.36;100381.50;5020693;28;20204;-62
2022/01/22 13:06:24;;;;;;;28.93;12.80;;;;;;;3.78;85.17;100382.41;5028079;28;20199;-62
2022/01/22 13:09:11;;;;;;;24.30;9.77;;;;;;;3.76;84.71;100373.91;5035518;28;20214;-63